Time;durP1;ratioP1;P1;durP2;ratioP2;P2;SDS_P1;SDS_P2;PMS_P1;PMS_P2;Temp;Humidity;BMP_temperature;BMP_pressure;BME280_temperature;BME280_humidity;BME280_pressure;Samples;Min_cycle;Max_cycle;Signal;HPM_P1;HPM_P2
2021/10/28 00:14:06;;;;;;;1.95;1.50;;;2.50;99.90;;;;;;5135271;27;20038;-65
2021/10/28 00:16:34;;;;;;;1.70;1.60;;;2.40;99.90;;;;;;5134956;27;20031;-65
2021/10/28 00:19:02;;;;;;;1.73;1.50;;;2.50;99.90;;;;;;5134923;27;20470;-65
2021/10/28 00:21:31;;;;;;;1.67;1.58;;;2.50;99.90;;;;;;5134700;27;20019;-65
2021/10/28 00:24:03;;;;;;;2.60;1.63;;;2.50;99.90;;;;;;5134758;27;20470;-65
2021/10/28 00:26:33;;;;;;;1.50;1.40;;;2.60;99.90;;;;;;5134603;27;20505;-65
2021/10/28 00:29:02;;;;;;;1.95;1.80;;;2.60;99.90;;;;;;5134798;27;20027;-65
2021/10/28 00:31:30;;;;;;;1.70;1.60;;;2.60;99.90;;;;;;5134839;27;20024;-65
2021/10/28 00:33:57;;;;;;;1.73;1.63;;;2.50;99.90;;;;;;5134967;27;20024;-65
2021/10/28 00:36:23;;;;;;;2.05;1.85;;;2.50;99.90;;;;;;5134616;27;20114;-65
2021/10/28 00:38:49;;;;;;;2.22;2.03;;;2.40;99.90;;;;;;5134459;27;20134;-65
2021/10/28 00:41:19;;;;;;;2.63;1.90;;;2.40;99.90;;;;;;5134424;27;20114;-65
2021/10/28 00:43:57;;;;;;;1.67;1.45;;;2.40;99.90;;;;;;5134717;27;20039;-65
2021/10/28 00:46:31;;;;;;;2.08;1.80;;;2.40;99.90;;;;;;5134354;27;20039;-65
2021/10/28 00:48:58;;;;;;;2.05;1.85;;;2.40;99.90;;;;;;5134591;27;20111;-65
2021/10/28 00:51:27;;;;;;;1.85;1.67;;;2.50;99.90;;;;;;5134079;27;20501;-65
2021/10/28 00:53:54;;;;;;;2.13;1.85;;;2.40;99.90;;;;;;5134512;27;20077;-65
2021/10/28 00:56:23;;;;;;;2.53;2.05;;;2.40;99.90;;;;;;5134009;27;20047;-65
2021/10/28 00:58:48;;;;;;;3.58;2.45;;;2.40;99.90;;;;;;5134369;27;20023;-65
2021/10/28 01:01:15;;;;;;;2.17;1.98;;;2.40;99.90;;;;;;5134221;27;20497;-65
2021/10/28 01:03:41;;;;;;;2.17;1.77;;;2.40;99.90;;;;;;5133887;27;20522;-65
2021/10/28 01:06:09;;;;;;;2.28;2.08;;;2.40;99.90;;;;;;5133768;27;20068;-66
2021/10/28 01:08:41;;;;;;;1.85;1.65;;;2.50;99.90;;;;;;5134104;27;20062;-66
2021/10/28 01:11:08;;;;;;;1.98;1.80;;;2.40;99.90;;;;;;5133793;27;20068;-66
2021/10/28 01:13:34;;;;;;;5.03;2.00;;;2.50;99.90;;;;;;5133705;27;20023;-66
2021/10/28 01:16:01;;;;;;;2.65;2.22;;;2.50;99.90;;;;;;5133578;27;20160;-66
2021/10/28 01:18:28;;;;;;;2.60;2.20;;;2.50;99.90;;;;;;5133598;27;20027;-66
2021/10/28 01:20:54;;;;;;;4.78;2.22;;;2.50;99.90;;;;;;5133598;27;20019;-65
2021/10/28 01:23:23;;;;;;;5.78;2.13;;;2.50;99.90;;;;;;5133651;27;20043;-65
2021/10/28 01:25:55;;;;;;;4.95;2.00;;;2.60;99.90;;;;;;5133350;27;20030;-65
2021/10/28 01:28:23;;;;;;;5.82;1.75;;;2.60;99.90;;;;;;5133491;27;20413;-65
2021/10/28 01:30:51;;;;;;;5.90;2.30;;;2.60;99.90;;;;;;5133721;27;20415;-65
2021/10/28 01:33:19;;;;;;;8.93;2.40;;;2.60;99.90;;;;;;5133463;27;20030;-65
2021/10/28 01:35:45;;;;;;;7.25;2.20;;;2.60;99.90;;;;;;5133068;27;20118;-65
2021/10/28 01:38:14;;;;;;;8.40;2.15;;;2.60;99.90;;;;;;5133448;27;20076;-65
2021/10/28 01:40:40;;;;;;;11.70;2.30;;;2.60;99.90;;;;;;5133211;27;20030;-65
2021/10/28 01:43:07;;;;;;;7.10;2.10;;;2.60;99.90;;;;;;5132276;27;20072;-65
2021/10/28 01:45:33;;;;;;;16.13;2.58;;;2.60;99.90;;;;;;5133132;27;20023;-65
2021/10/28 01:48:00;;;;;;;19.75;2.38;;;2.60;99.90;;;;;;5133647;27;20370;-65
2021/10/28 01:50:28;;;;;;;7.53;2.40;;;2.60;99.90;;;;;;5133103;27;20509;-65
2021/10/28 01:52:55;;;;;;;13.52;2.60;;;2.60;99.90;;;;;;5133303;27;20059;-65
2021/10/28 01:55:21;;;;;;;16.27;2.38;;;2.60;99.90;;;;;;5133056;27;20031;-65
2021/10/28 01:57:48;;;;;;;2.58;2.20;;;2.60;99.90;;;;;;5132913;27;20047;-65
2021/10/28 02:00:17;;;;;;;11.30;2.17;;;2.60;99.90;;;;;;5133120;27;20015;-65
2021/10/28 02:02:45;;;;;;;8.95;2.60;;;2.60;99.90;;;;;;5132928;27;20031;-66
2021/10/28 02:05:12;;;;;;;7.13;2.47;;;2.50;99.90;;;;;;5133192;27;20027;-66
2021/10/28 02:07:37;;;;;;;8.02;2.30;;;2.50;99.90;;;;;;5132836;27;20087;-66
2021/10/28 02:10:05;;;;;;;11.65;3.10;;;2.50;99.90;;;;;;5132839;28;20106;-66
2021/10/28 02:12:33;;;;;;;3.90;2.72;;;2.50;99.90;;;;;;5133057;28;20084;-66
2021/10/28 02:14:59;;;;;;;6.97;2.40;;;2.50;99.90;;;;;;5133027;28;20025;-66
2021/10/28 02:17:25;;;;;;;14.52;2.83;;;2.50;99.90;;;;;;5134247;27;20031;-66
2021/10/28 02:19:50;;;;;;;7.68;2.35;;;2.60;99.90;;;;;;5137455;27;20470;-65
2021/10/28 02:22:16;;;;;;;12.90;2.50;;;2.60;99.90;;;;;;5137332;27;20055;-65
2021/10/28 02:56:11;;;;;;;8.45;2.78;;;2.60;99.90;;;;;;5135622;27;20141;-65
2021/10/28 02:58:37;;;;;;;15.48;2.80;;;2.70;99.90;;;;;;5136481;27;20100;-65
2021/10/28 03:01:02;;;;;;;14.65;3.13;;;2.70;99.90;;;;;;5136423;27;20027;-65
2021/10/28 03:03:28;;;;;;;8.07;3.22;;;2.60;99.90;;;;;;5136381;27;20049;-65
2021/10/28 03:05:54;;;;;;;17.20;3.55;;;2.60;99.90;;;;;;5136094;27;20089;-65
2021/10/28 03:08:19;;;;;;;8.23;3.72;;;2.60;99.90;;;;;;5136273;27;20035;-65
2021/10/28 03:10:45;;;;;;;12.18;3.38;;;2.60;99.90;;;;;;5136177;27;20088;-65
2021/10/28 03:13:15;;;;;;;4.45;3.03;;;2.60;99.90;;;;;;5136038;27;20026;-65
2021/10/28 03:15:41;;;;;;;4.37;3.00;;;2.60;99.90;;;;;;5136181;27;20035;-65
2021/10/28 03:26:14;;;;;;;5.45;2.70;;;2.60;99.90;;;;;;5136117;27;20087;-65
2021/10/28 03:28:39;;;;;;;3.75;2.67;;;2.50;99.90;;;;;;5135727;27;20427;-65
2021/10/28 03:31:05;;;;;;;4.28;2.88;;;2.50;99.90;;;;;;5135782;27;20028;-65
2021/10/28 03:33:33;;;;;;;3.15;2.67;;;2.50;99.90;;;;;;5136087;27;20023;-65
2021/10/28 03:35:59;;;;;;;3.88;2.67;;;2.50;99.90;;;;;;5135493;27;20028;-65
2021/10/28 03:38:27;;;;;;;4.03;2.67;;;2.60;99.90;;;;;;5135696;27;20126;-65
2021/10/28 03:49:18;;;;;;;6.20;2.13;;;2.60;99.90;;;;;;5134523;27;20048;-65
2021/10/28 04:29:06;;;;;;;3.03;1.88;;;2.60;99.90;;;;;;5134950;27;20114;-66
2021/10/28 04:31:36;;;;;;;3.55;1.45;;;2.60;99.90;;;;;;5134611;27;20047;-65
2021/10/28 04:34:05;;;;;;;2.83;1.67;;;2.60;99.90;;;;;;5134453;27;20019;-65
2021/10/28 04:36:32;;;;;;;4.07;1.63;;;2.60;99.90;;;;;;5134371;27;20566;-65
2021/10/28 04:38:58;;;;;;;3.58;1.05;;;2.70;99.90;;;;;;5134624;27;20027;-69
2021/10/28 04:41:25;;;;;;;3.75;2.10;;;3.30;99.90;;;;;;5133921;27;20152;-65
2021/10/28 04:43:51;;;;;;;2.08;1.50;;;4.80;99.90;;;;;;5136759;27;20019;-65
2021/10/28 04:46:17;;;;;;;2.55;1.52;;;4.60;99.90;;;;;;5141882;27;20101;-64
2021/10/28 04:48:43;;;;;;;1.60;1.30;;;4.10;99.90;;;;;;5144212;27;20466;-65
2021/10/28 04:51:09;;;;;;;1.92;1.77;;;3.70;99.90;;;;;;5143007;27;20042;-66
2021/10/28 04:53:35;;;;;;;2.35;1.25;;;3.50;99.90;;;;;;5142238;27;20027;-64
2021/10/28 04:56:00;;;;;;;3.60;1.45;;;3.30;99.90;;;;;;5139032;27;20117;-65
2021/10/28 04:58:26;;;;;;;1.88;1.05;;;3.20;99.90;;;;;;5131084;27;20095;-64
2021/10/28 05:00:52;;;;;;;1.27;1.17;;;3.10;99.90;;;;;;5133759;27;20502;-65
2021/10/28 05:03:18;;;;;;;2.13;1.10;;;3.00;99.90;;;;;;5125150;27;20023;-65
2021/10/28 05:05:44;;;;;;;1.35;1.00;;;3.00;99.90;;;;;;5127233;27;20019;-65
2021/10/28 05:08:10;;;;;;;1.48;1.20;;;2.90;99.90;;;;;;5142514;27;20027;-65
2021/10/28 05:10:39;;;;;;;1.40;1.30;;;2.90;99.90;;;;;;5145505;27;20094;-65
2021/10/28 05:13:05;;;;;;;2.22;1.30;;;2.90;99.90;;;;;;5142805;27;20026;-65
2021/10/28 05:15:30;;;;;;;2.70;1.20;;;2.90;99.90;;;;;;5144501;27;20023;-65
2021/10/28 05:17:56;;;;;;;1.60;1.40;;;2.90;99.90;;;;;;5144673;27;20062;-65
2021/10/28 05:20:22;;;;;;;2.33;1.30;;;2.90;99.90;;;;;;5154620;27;20026;-66
2021/10/28 05:22:48;;;;;;;3.25;1.35;;;3.00;99.90;;;;;;5154261;27;20431;-66
2021/10/28 05:25:13;;;;;;;4.72;1.20;;;3.00;99.90;;;;;;5147486;27;20023;-66
2021/10/28 05:27:39;;;;;;;4.10;1.58;;;3.00;99.90;;;;;;5150470;27;20496;-66
2021/10/28 05:30:05;;;;;;;1.35;1.25;;;3.00;99.90;;;;;;5138803;27;20019;-66
2021/10/28 05:32:31;;;;;;;3.88;1.30;;;2.90;99.90;;;;;;5133498;27;20027;-66
2021/10/28 05:35:00;;;;;;;4.43;1.80;;;2.90;99.90;;;;;;5133575;27;20023;-66
2021/10/28 05:37:27;;;;;;;2.28;1.40;;;2.80;99.90;;;;;;5133594;27;20039;-66
2021/10/28 05:39:52;;;;;;;1.75;1.48;;;2.80;99.90;;;;;;5133373;27;20016;-66
2021/10/28 05:42:18;;;;;;;2.00;1.35;;;2.70;99.90;;;;;;5133004;27;20426;-66
2021/10/28 05:44:44;;;;;;;3.88;1.48;;;2.70;99.90;;;;;;5133136;27;20026;-66
2021/10/28 05:47:10;;;;;;;3.00;1.70;;;2.80;99.90;;;;;;5133131;27;20019;-68
2021/10/28 05:49:36;;;;;;;2.30;1.40;;;3.70;99.90;;;;;;5133307;27;20031;-68
2021/10/28 05:52:02;;;;;;;1.90;1.25;;;3.80;99.90;;;;;;5133325;27;20102;-70
2021/10/28 05:54:27;;;;;;;3.75;1.30;;;3.50;99.90;;;;;;5127151;27;20076;-70
2021/10/28 05:56:53;;;;;;;1.55;1.17;;;3.30;99.90;;;;;;5132207;27;20054;-70
2021/10/28 05:59:19;;;;;;;2.55;1.08;;;3.30;99.90;;;;;;5132373;27;20049;-69
2021/10/28 06:01:44;;;;;;;2.22;1.23;;;3.10;99.90;;;;;;5125243;27;20027;-70
2021/10/28 06:04:10;;;;;;;1.33;1.23;;;3.00;99.90;;;;;;5121620;27;20456;-70
2021/10/28 06:06:36;;;;;;;1.08;1.02;;;3.00;99.90;;;;;;5126441;27;20031;-70
2021/10/28 06:09:02;;;;;;;2.15;1.17;;;3.00;99.90;;;;;;5112173;28;20024;-70
2021/10/28 06:11:28;;;;;;;2.78;1.50;;;2.90;99.90;;;;;;5123932;28;20023;-69
2021/10/28 06:13:54;;;;;;;2.35;1.10;;;3.00;99.90;;;;;;5124162;27;20459;-68
2021/10/28 06:16:22;;;;;;;1.45;1.35;;;3.00;99.90;;;;;;5111534;28;20036;-68
2021/10/28 06:18:49;;;;;;;1.95;1.35;;;3.00;99.90;;;;;;5111917;28;20416;-67
2021/10/28 06:21:18;;;;;;;2.55;1.23;;;3.00;99.90;;;;;;5110412;28;20433;-67
2021/10/28 06:23:45;;;;;;;3.78;1.80;;;3.00;99.90;;;;;;5111888;28;20023;-68
2021/10/28 06:26:12;;;;;;;3.13;1.35;;;3.00;99.90;;;;;;5122780;28;20034;-69
2021/10/28 06:28:39;;;;;;;6.90;1.73;;;3.00;99.90;;;;;;5128952;28;20075;-69
2021/10/28 06:31:04;;;;;;;1.85;1.20;;;3.00;99.90;;;;;;5114307;27;20027;-69
2021/10/28 06:33:34;;;;;;;4.30;1.48;;;3.00;99.90;;;;;;5124340;28;20103;-67
2021/10/28 06:36:02;;;;;;;2.07;1.50;;;3.00;99.90;;;;;;5120762;28;20065;-63
2021/10/28 06:38:30;;;;;;;2.45;1.38;;;3.00;99.90;;;;;;5123964;28;20630;-66
2021/10/28 06:40:56;;;;;;;2.08;1.50;;;3.00;99.90;;;;;;5128966;28;20020;-63
2021/10/28 06:43:22;;;;;;;2.70;1.30;;;3.00;99.90;;;;;;5121312;28;20019;-65
2021/10/28 06:45:48;;;;;;;1.75;1.20;;;3.00;99.90;;;;;;5120841;28;20536;-63
2021/10/28 06:48:14;;;;;;;1.70;1.40;;;3.00;99.90;;;;;;5127523;28;20031;-63
2021/10/28 06:50:44;;;;;;;3.35;1.60;;;3.00;99.90;;;;;;5125135;28;20027;-63
2021/10/28 07:03:27;;;;;;;4.25;1.60;;;3.10;99.90;;;;;;5129020;27;20476;-62
2021/10/28 07:05:56;;;;;;;3.20;1.42;;;4.70;99.90;;;;;;5124606;27;20389;-62
2021/10/28 07:08:21;;;;;;;4.15;1.25;;;4.60;99.90;;;;;;5121645;27;20040;-62
2021/10/28 07:10:50;;;;;;;2.83;1.45;;;4.20;99.90;;;;;;5126328;27;20020;-63
2021/10/28 07:13:19;;;;;;;5.65;1.65;;;3.90;99.90;;;;;;5129908;27;20024;-63
2021/10/28 07:15:52;;;;;;;4.35;1.40;;;3.80;99.90;;;;;;5124180;27;20031;-65
2021/10/28 08:22:36;;;;;;;8.32;2.47;;;3.50;99.90;;;;;;5129154;27;20176;-64
2021/10/28 08:30:25;;;;;;;6.38;2.45;;;3.90;99.90;;;;;;5134184;27;20042;-64
2021/10/28 08:32:52;;;;;;;4.70;2.65;;;3.90;99.90;;;;;;5134061;27;20075;-64
2021/10/28 08:35:18;;;;;;;6.30;2.75;;;3.90;99.90;;;;;;5132909;27;20030;-64
2021/10/28 08:37:49;;;;;;;8.10;2.78;;;3.90;99.90;;;;;;5134142;27;20027;-64
2021/10/28 08:40:15;;;;;;;;;;;3.90;99.90;;;;;;5133855;27;20359;-64
2021/10/28 08:42:44;;;;;;;5.50;2.58;;;3.90;99.90;;;;;;5133506;27;19910;-64
2021/10/28 08:45:14;;;;;;;7.50;2.93;;;4.70;99.90;;;;;;5120371;27;20020;-64
2021/10/28 08:47:46;;;;;;;6.57;2.63;;;4.90;99.90;;;;;;5113792;27;20022;-64
2021/10/28 08:50:23;;;;;;;5.63;2.60;;;4.80;99.90;;;;;;5121579;27;20502;-65
2021/10/28 08:55:35;;;;;;;7.53;3.08;;;4.50;99.90;;;;;;5124004;27;20030;-63
2021/10/28 09:24:14;;;;;;;5.28;2.97;;;4.20;99.90;;;;;;5133066;27;20111;-67
2021/10/28 09:26:53;;;;;;;4.97;3.00;;;4.20;99.90;;;;;;5123008;27;20035;-66
2021/10/28 09:29:49;;;;;;;5.82;3.20;;;4.20;99.90;;;;;;5118177;27;20047;-67
2021/10/28 09:35:23;;;;;;;4.65;2.20;;;4.30;99.90;;;;;;5119182;27;20015;-67
2021/10/28 09:43:55;;;;;;;5.53;2.10;;;4.40;99.90;;;;;;5127978;27;20037;-65
2021/10/28 09:46:43;;;;;;;3.50;1.88;;;4.50;99.90;;;;;;5129462;27;20019;-65
2021/10/28 09:52:08;;;;;;;5.03;2.22;;;4.50;99.90;;;;;;5115292;27;20023;-65
2021/10/28 09:59:51;;;;;;;2.45;1.80;;;4.60;99.90;;;;;;5117108;27;20029;-66
2021/10/28 10:02:37;;;;;;;8.90;2.20;;;4.60;99.90;;;;;;5124082;27;20433;-66
2021/10/28 10:07:47;;;;;;;7.88;3.70;;;4.60;99.90;;;;;;5124951;27;20025;-66
2021/10/28 10:10:18;;;;;;;7.30;4.55;;;4.60;99.90;;;;;;5114511;27;20055;-65
2021/10/28 10:12:44;;;;;;;6.90;4.80;;;4.60;99.90;;;;;;5124298;27;20053;-67
2021/10/28 10:15:11;;;;;;;5.43;4.00;;;4.60;99.90;;;;;;5119706;28;20046;-66
2021/10/28 10:17:38;;;;;;;7.03;3.30;;;4.60;99.90;;;;;;5129959;28;20072;-66
2021/10/28 10:20:12;;;;;;;6.63;3.63;;;4.60;99.90;;;;;;5124350;27;20043;-66
2021/10/28 10:25:35;;;;;;;5.28;3.53;;;4.60;99.90;;;;;;5125201;27;20102;-66
2021/10/28 12:45:48;;;;;;;10.20;6.03;;;5.20;99.90;;;;;;5128237;27;20046;-67
2021/10/28 13:07:40;;;;;;;17.73;11.65;;;5.10;99.90;;;;;;5124781;27;20475;-66
2021/10/28 13:37:53;;;;;;;9.75;5.97;;;5.20;99.90;;;;;;5101745;27;20493;-65
2021/10/28 13:48:48;;;;;;;10.90;5.65;;;5.10;99.90;;;;;;5132839;27;20034;-66
2021/10/28 13:54:04;;;;;;;9.27;5.80;;;5.00;99.90;;;;;;5117979;27;20020;-66
2021/10/28 15:36:21;;;;;;;2.38;1.70;;;4.80;99.90;;;;;;5123630;27;20031;-65
2021/10/28 15:41:51;;;;;;;1.70;1.60;;;4.70;99.90;;;;;;5131215;27;20020;-66
2021/10/28 16:22:08;;;;;;;9.23;2.88;;;6.80;99.90;;;;;;5114241;28;20030;-65
2021/10/28 16:24:35;;;;;;;3.20;2.20;;;6.90;99.90;;;;;;5120770;27;20382;-65
2021/10/28 16:27:02;;;;;;;3.28;1.70;;;6.50;99.90;;;;;;5121386;27;20047;-65
2021/10/28 16:29:28;;;;;;;5.20;2.28;;;6.20;99.90;;;;;;5113682;28;20027;-65
2021/10/28 16:31:55;;;;;;;2.28;1.55;;;5.90;99.90;;;;;;5118689;27;20106;-65
2021/10/28 16:34:21;;;;;;;3.53;1.65;;;5.70;99.90;;;;;;5119702;27;20015;-64
2021/10/28 16:36:48;;;;;;;7.32;1.85;;;5.60;99.90;;;;;;5129244;27;20042;-64
2021/10/28 16:39:15;;;;;;;2.45;1.83;;;5.50;99.90;;;;;;5113804;28;20028;-65
2021/10/28 16:41:45;;;;;;;3.72;1.90;;;5.40;99.90;;;;;;5118567;27;20027;-64
2021/10/28 16:44:11;;;;;;;2.97;2.10;;;5.40;99.90;;;;;;5113029;27;20030;-65
2021/10/28 16:46:39;;;;;;;6.57;1.70;;;5.40;99.90;;;;;;5126936;27;20073;-65
2021/10/28 16:49:07;;;;;;;2.85;1.80;;;5.30;99.90;;;;;;5126931;27;20019;-64
2021/10/28 16:51:33;;;;;;;2.78;1.75;;;5.30;99.90;;;;;;5123837;27;20132;-65
2021/10/28 16:53:59;;;;;;;1.92;1.42;;;5.30;99.90;;;;;;5133139;27;20042;-65
2021/10/28 16:56:25;;;;;;;2.22;1.73;;;5.30;99.90;;;;;;5131367;27;20110;-65
2021/10/28 16:58:51;;;;;;;2.85;1.70;;;5.30;99.90;;;;;;5113802;28;20396;-65
2021/10/28 17:01:17;;;;;;;3.10;1.80;;;5.30;99.90;;;;;;5113994;28;20016;-65
2021/10/28 17:03:44;;;;;;;7.97;1.70;;;5.20;99.90;;;;;;5120878;27;20455;-65
2021/10/28 17:06:13;;;;;;;2.67;1.77;;;5.20;99.90;;;;;;5133668;27;20030;-66
2021/10/28 17:08:40;;;;;;;2.33;1.70;;;5.10;99.90;;;;;;5126880;27;20016;-65
2021/10/28 17:11:06;;;;;;;2.45;1.67;;;5.10;99.90;;;;;;5113953;27;20471;-65
2021/10/28 17:13:32;;;;;;;3.38;2.03;;;5.10;99.90;;;;;;5112779;28;20023;-65
2021/10/28 17:15:58;;;;;;;5.45;2.25;;;5.10;99.90;;;;;;5111558;28;20023;-66
2021/10/28 17:18:24;;;;;;;3.15;2.13;;;5.00;99.90;;;;;;5121490;27;20391;-66
2021/10/28 17:20:50;;;;;;;12.60;9.00;;;4.90;99.90;;;;;;5125915;27;20379;-66
2021/10/28 17:23:17;;;;;;;11.43;7.97;;;4.90;99.90;;;;;;5126760;27;20023;-66
2021/10/28 17:25:50;;;;;;;8.60;5.18;;;4.90;99.90;;;;;;5132609;27;20047;-66
2021/10/28 17:28:16;;;;;;;2.72;2.30;;;4.90;99.90;;;;;;5126048;27;20038;-66
2021/10/28 17:30:42;;;;;;;2.58;2.03;;;4.90;99.90;;;;;;5117377;27;20020;-66
2021/10/28 17:33:08;;;;;;;3.38;2.00;;;4.90;99.90;;;;;;5123547;27;20024;-66
2021/10/28 17:35:34;;;;;;;3.13;1.92;;;4.90;99.90;;;;;;5122515;27;20493;-66
2021/10/28 17:38:01;;;;;;;2.33;1.88;;;4.90;99.90;;;;;;5112324;28;20046;-66
2021/10/28 17:40:27;;;;;;;2.63;1.90;;;4.90;99.90;;;;;;5117447;27;20025;-66
2021/10/28 17:42:56;;;;;;;2.63;1.90;;;4.90;99.90;;;;;;5121950;27;20019;-65
2021/10/28 17:45:29;;;;;;;2.77;1.60;;;4.80;99.90;;;;;;5126565;27;20534;-65
2021/10/28 17:47:56;;;;;;;3.72;1.73;;;4.90;99.90;;;;;;5113196;27;20409;-65
2021/10/28 17:50:24;;;;;;;3.15;1.75;;;4.90;99.90;;;;;;5112130;28;20035;-65
2021/10/28 17:52:51;;;;;;;4.25;2.22;;;5.00;99.90;;;;;;5112065;28;20510;-65
2021/10/28 17:55:16;;;;;;;3.88;2.05;;;5.00;99.90;;;;;;5121347;27;20042;-65
2021/10/28 17:57:44;;;;;;;2.45;1.80;;;4.90;99.90;;;;;;5117583;27;20051;-65
2021/10/28 18:00:12;;;;;;;3.45;1.73;;;4.90;99.90;;;;;;5125216;27;20023;-65
2021/10/28 18:02:39;;;;;;;3.72;1.80;;;4.90;99.90;;;;;;5126342;27;20194;-65
2021/10/28 18:05:06;;;;;;;3.30;1.73;;;4.80;99.90;;;;;;5127349;27;20019;-65
2021/10/28 18:07:32;;;;;;;3.17;2.20;;;4.70;99.90;;;;;;5123461;27;20027;-67
2021/10/28 18:09:58;;;;;;;3.90;2.55;;;4.80;99.90;;;;;;5114600;27;20498;-66
2021/10/28 18:12:28;;;;;;;4.80;2.63;;;5.00;99.90;;;;;;5113517;28;20032;-66
2021/10/28 18:14:55;;;;;;;3.97;2.83;;;4.90;99.90;;;;;;5114353;27;20012;-66
2021/10/28 18:17:21;;;;;;;3.92;2.58;;;4.80;99.90;;;;;;5111872;28;20032;-66
2021/10/28 18:19:48;;;;;;;3.63;2.70;;;4.80;99.90;;;;;;5111677;28;20125;-66
2021/10/28 18:22:15;;;;;;;5.60;2.60;;;4.70;99.90;;;;;;5112102;28;20024;-66
2021/10/28 18:24:42;;;;;;;3.80;2.47;;;4.60;99.90;;;;;;5111830;28;20072;-66
2021/10/28 18:27:08;;;;;;;3.50;2.70;;;4.60;99.90;;;;;;5124319;28;20389;-66
2021/10/28 18:29:35;;;;;;;2.88;2.10;;;4.50;99.90;;;;;;5113234;28;20016;-66
2021/10/28 18:32:01;;;;;;;2.47;2.22;;;4.50;99.90;;;;;;5122433;28;20072;-66
2021/10/28 18:34:27;;;;;;;2.90;2.10;;;4.50;99.90;;;;;;5128062;28;20019;-66
2021/10/28 18:36:53;;;;;;;2.67;2.05;;;4.40;99.90;;;;;;5118982;28;20114;-66
2021/10/28 18:39:20;;;;;;;2.25;1.85;;;4.40;99.90;;;;;;5117452;28;20073;-66
2021/10/28 18:41:47;;;;;;;2.60;2.08;;;4.40;99.90;;;;;;5111585;28;20449;-65
2021/10/28 18:44:14;;;;;;;2.10;1.85;;;4.40;99.90;;;;;;5111480;28;20111;-66
2021/10/28 18:46:39;;;;;;;4.65;2.03;;;4.30;99.90;;;;;;5129772;28;20024;-66
2021/10/28 18:49:07;;;;;;;3.67;2.20;;;4.30;99.90;;;;;;5120665;28;20096;-66
2021/10/28 18:51:34;;;;;;;4.57;2.45;;;4.30;99.90;;;;;;5125908;28;20077;-67
2021/10/28 18:54:01;;;;;;;12.93;3.40;;;4.30;99.90;;;;;;5111524;28;20019;-66
2021/10/28 18:56:27;;;;;;;4.28;3.17;;;4.30;99.90;;;;;;5112987;28;20032;-66
2021/10/28 18:58:53;;;;;;;4.68;3.50;;;4.20;99.90;;;;;;5124208;28;20055;-66
2021/10/28 19:01:19;;;;;;;10.63;3.47;;;4.20;99.90;;;;;;5129506;27;20023;-66
2021/10/28 19:03:46;;;;;;;5.72;3.33;;;4.30;99.90;;;;;;5136076;27;20015;-66
2021/10/28 19:06:13;;;;;;;7.32;3.67;;;4.30;99.90;;;;;;5121182;27;20016;-66
2021/10/28 19:08:42;;;;;;;8.57;4.00;;;4.30;99.90;;;;;;5129351;27;20012;-66
2021/10/28 19:11:11;;;;;;;9.50;3.40;;;4.30;99.90;;;;;;5128508;27;20091;-65
2021/10/28 19:13:40;;;;;;;4.93;3.55;;;4.40;99.90;;;;;;5121178;27;20079;-63
2021/10/28 19:16:07;;;;;;;8.02;3.58;;;4.40;99.90;;;;;;5116979;27;20043;-65
2021/10/28 19:18:33;;;;;;;15.68;3.63;;;4.50;99.90;;;;;;5120339;27;20019;-64
2021/10/28 19:21:01;;;;;;;6.30;3.08;;;4.40;99.90;;;;;;5123560;27;20399;-64
2021/10/28 19:23:27;;;;;;;17.00;3.92;;;4.50;99.90;;;;;;5115129;28;20031;-64
2021/10/28 19:25:53;;;;;;;26.45;3.90;;;4.50;99.90;;;;;;5119794;27;20034;-64
2021/10/28 19:28:19;;;;;;;29.88;3.95;;;4.50;99.90;;;;;;5119074;27;20023;-66
2021/10/28 19:30:52;;;;;;;41.60;3.53;;;4.50;99.90;;;;;;5122862;27;20080;-66
2021/10/28 19:33:21;;;;;;;29.48;3.30;;;4.50;99.90;;;;;;5114611;28;20022;-66
2021/10/28 19:35:49;;;;;;;61.67;3.75;;;4.50;99.90;;;;;;5114729;28;20107;-66
2021/10/28 19:46:21;;;;;;;49.58;3.95;;;4.50;99.90;;;;;;5114780;28;20387;-64
2021/10/28 19:48:48;;;;;;;25.75;3.70;;;4.60;99.90;;;;;;5124185;27;20571;-65
2021/10/28 19:51:14;;;;;;;33.28;3.80;;;4.60;99.90;;;;;;5123816;27;20482;-65
2021/10/28 19:53:40;;;;;;;48.22;4.47;;;4.60;99.90;;;;;;5120514;27;20387;-65
2021/10/28 19:56:20;;;;;;;40.72;4.30;;;4.60;99.90;;;;;;5116506;27;20443;-65
2021/10/28 19:59:01;;;;;;;56.40;3.92;;;4.60;99.90;;;;;;5114098;28;20090;-65
2021/10/28 20:22:38;;;;;;;14.95;2.60;;;5.80;99.90;;;;;;5114214;28;20047;-67
2021/10/28 20:25:06;;;;;;;28.33;2.57;;;5.50;99.90;;;;;;5128090;27;20049;-66
2021/10/28 20:27:32;;;;;;;34.97;2.55;;;5.40;99.90;;;;;;5120600;27;20292;-67
2021/10/28 20:29:58;;;;;;;11.60;2.13;;;5.20;99.90;;;;;;5132959;27;20052;-67
2021/10/28 20:32:24;;;;;;;4.45;2.33;;;5.10;99.90;;;;;;5134653;27;20019;-67
2021/10/28 20:37:36;;;;;;;12.25;2.00;;;5.10;99.90;;;;;;5113809;28;20544;-67
2021/10/28 20:40:03;;;;;;;7.10;1.90;;;5.80;99.90;;;;;;5125709;27;20023;-67
2021/10/28 20:42:40;;;;;;;4.10;2.20;;;5.70;99.90;;;;;;5126989;27;20478;-67
2021/10/28 20:45:10;;;;;;;10.30;2.50;;;5.60;99.90;;;;;;5120901;27;20023;-67
2021/10/28 20:47:38;;;;;;;7.68;2.95;;;5.40;99.90;;;;;;5114435;27;20110;-67
2021/10/28 20:50:05;;;;;;;9.38;3.70;;;5.30;99.90;;;;;;5116608;27;20035;-67
2021/10/28 20:52:33;;;;;;;15.18;4.85;;;5.20;99.90;;;;;;5123871;27;20027;-67
2021/10/28 20:54:59;;;;;;;8.45;4.32;;;5.10;99.90;;;;;;5124212;27;20103;-67
2021/10/28 20:57:26;;;;;;;8.05;4.70;;;5.10;99.90;;;;;;5124534;27;20164;-67
2021/10/28 20:59:52;;;;;;;19.55;4.68;;;5.00;99.90;;;;;;5130902;27;20031;-67
2021/10/28 21:02:17;;;;;;;9.90;4.93;;;4.90;99.90;;;;;;5128374;27;20229;-67
2021/10/28 21:04:43;;;;;;;10.00;5.03;;;4.90;99.90;;;;;;5115962;27;20016;-67
2021/10/28 21:07:09;;;;;;;16.45;4.95;;;4.80;99.90;;;;;;5127166;27;20057;-67
2021/10/28 21:09:35;;;;;;;13.75;4.90;;;4.80;99.90;;;;;;5115595;27;20019;-66
2021/10/28 21:12:00;;;;;;;28.20;5.22;;;4.70;99.90;;;;;;5123925;27;20034;-66
2021/10/28 21:14:26;;;;;;;36.10;5.05;;;4.70;99.90;;;;;;5128581;27;20023;-67
2021/10/28 21:16:52;;;;;;;21.48;4.70;;;4.50;99.90;;;;;;5128365;27;20031;-74
2021/10/28 21:19:17;;;;;;;11.95;5.10;;;4.40;99.90;;;;;;5124108;27;20030;-75
2021/10/28 21:21:44;;;;;;;18.88;5.18;;;4.40;99.90;;;;;;5128886;27;20442;-71
2021/10/28 21:24:11;;;;;;;8.35;4.70;;;4.40;99.90;;;;;;5122346;27;20023;-71
2021/10/28 21:26:38;;;;;;;18.70;4.82;;;4.40;99.90;;;;;;5122410;27;20108;-71
2021/10/28 21:29:04;;;;;;;26.98;5.20;;;4.50;99.90;;;;;;5130286;27;20030;-71
2021/10/28 21:31:31;;;;;;;40.75;5.32;;;4.50;99.90;;;;;;5125379;27;20022;-75
2021/10/28 21:33:57;;;;;;;29.25;4.70;;;4.50;99.90;;;;;;5121988;27;20038;-75
2021/10/28 21:36:23;;;;;;;16.10;4.30;;;4.50;99.90;;;;;;5128930;27;20035;-76
2021/10/28 21:38:49;;;;;;;9.93;3.60;;;4.40;99.90;;;;;;5118163;27;20487;-75
2021/10/28 21:41:15;;;;;;;31.92;3.65;;;4.40;99.90;;;;;;5118994;27;20023;-75
2021/10/28 21:43:41;;;;;;;13.55;4.10;;;4.40;99.90;;;;;;5132944;27;20030;-75
2021/10/28 21:46:07;;;;;;;25.17;3.38;;;4.30;99.90;;;;;;5112392;27;20638;-75
2021/10/28 21:48:33;;;;;;;5.47;3.20;;;4.30;99.90;;;;;;5112619;28;20032;-75
2021/10/28 21:51:00;;;;;;;7.90;4.00;;;4.30;99.90;;;;;;5126432;27;20467;-75
2021/10/28 21:53:28;;;;;;;9.32;2.90;;;4.30;99.90;;;;;;5121166;27;20058;-74
2021/10/28 21:56:07;;;;;;;2.83;2.53;;;4.30;99.90;;;;;;5117906;27;20023;-75
2021/10/28 22:04:57;;;;;;;2.65;2.25;;;4.20;99.90;;;;;;5098817;27;20088;-76
2021/10/28 22:24:22;;;;;;;2.05;1.85;;;4.10;99.90;;;;;;5126017;28;20048;-76
2021/10/28 22:26:48;;;;;;;2.20;1.98;;;4.10;99.90;;;;;;5119744;28;20022;-76
2021/10/28 22:29:14;;;;;;;1.98;1.77;;;4.10;99.90;;;;;;5130483;28;20031;-75
2021/10/28 22:31:40;;;;;;;2.25;1.70;;;4.10;99.90;;;;;;5126009;28;20029;-75
2021/10/28 22:34:06;;;;;;;1.90;1.80;;;4.10;99.90;;;;;;5124936;27;20031;-75
2021/10/28 22:36:43;;;;;;;1.90;1.77;;;4.10;99.90;;;;;;5130564;27;20032;-75
2021/10/28 22:39:17;;;;;;;1.75;1.65;;;4.00;99.90;;;;;;5130186;27;20102;-73
2021/10/28 22:41:43;;;;;;;2.55;1.95;;;4.00;99.90;;;;;;5122467;27;20027;-72
2021/10/28 22:44:09;;;;;;;1.75;1.65;;;4.00;99.90;;;;;;5134546;27;20103;-67
2021/10/28 22:46:34;;;;;;;1.70;1.60;;;4.00;99.90;;;;;;5127995;27;20023;-66
2021/10/28 22:49:01;;;;;;;2.28;1.92;;;4.00;99.90;;;;;;5127924;27;20019;-66
2021/10/28 22:51:27;;;;;;;2.67;1.90;;;4.00;99.90;;;;;;5133446;27;20511;-66
2021/10/28 22:53:53;;;;;;;2.13;1.70;;;4.00;99.90;;;;;;5129983;27;20040;-66
2021/10/28 22:56:20;;;;;;;2.40;1.98;;;3.90;99.90;;;;;;5124233;27;20440;-67
2021/10/28 22:58:56;;;;;;;2.05;1.85;;;3.90;99.90;;;;;;5129712;27;20032;-66
2021/10/28 23:01:29;;;;;;;1.73;1.63;;;3.90;99.90;;;;;;5128002;27;20015;-66
2021/10/28 23:22:30;;;;;;;4.15;2.22;;;3.70;99.90;;;;;;5115644;28;20027;-67
2021/10/28 23:24:56;;;;;;;8.52;2.17;;;3.70;99.90;;;;;;5114795;28;20023;-67
2021/10/28 23:27:22;;;;;;;6.95;2.45;;;3.60;99.90;;;;;;5121623;27;20064;-67
2021/10/28 23:29:48;;;;;;;2.90;2.35;;;3.70;99.90;;;;;;5122756;27;20433;-67
2021/10/28 23:32:13;;;;;;;4.43;2.33;;;3.70;99.90;;;;;;5129412;27;20093;-67
2021/10/28 23:34:39;;;;;;;3.45;2.40;;;3.70;99.90;;;;;;5125850;27;20386;-67
2021/10/28 23:37:05;;;;;;;7.45;2.38;;;3.70;99.90;;;;;;5120917;27;20498;-67